Time;durP1;ratioP1;P1;durP2;ratioP2;P2;SDS_P1;SDS_P2;PMS_P1;PMS_P2;Temp;Humidity;BMP_temperature;BMP_pressure;BME280_temperature;BME280_humidity;BME280_pressure;Samples;Min_cycle;Max_cycle;Signal;HPM_P1;HPM_P2
2022/07/22 00:01:16;;;;;;;1.30;0.50;;;25.80;57.60;;;;;;5052383;28;20021;-72
2022/07/22 00:03:42;;;;;;;0.85;0.52;;;25.90;57.60;;;;;;5051169;28;20040;-73
2022/07/22 00:06:07;;;;;;;0.75;0.52;;;25.80;57.60;;;;;;5034379;28;20033;-72
2022/07/22 00:08:33;;;;;;;1.45;0.60;;;25.80;57.70;;;;;;5051992;28;20064;-73
2022/07/22 00:10:58;;;;;;;0.52;0.50;;;25.80;57.60;;;;;;5051934;28;20112;-73
2022/07/22 00:13:24;;;;;;;0.77;0.50;;;25.80;57.70;;;;;;5051924;28;20526;-72
2022/07/22 00:15:50;;;;;;;0.52;0.52;;;25.80;57.60;;;;;;5051958;28;20032;-73
2022/07/22 00:18:15;;;;;;;1.05;0.60;;;25.80;57.70;;;;;;5017802;28;20495;-72
2022/07/22 00:20:42;;;;;;;0.47;0.47;;;25.80;57.80;;;;;;5050796;28;20024;-72
2022/07/22 00:23:08;;;;;;;0.70;0.50;;;25.80;57.80;;;;;;5050642;28;20096;-72
2022/07/22 00:25:34;;;;;;;0.68;0.40;;;25.80;57.90;;;;;;5050792;28;20113;-72
2022/07/22 00:27:59;;;;;;;0.38;0.38;;;25.80;57.90;;;;;;5051778;28;20024;-73
2022/07/22 00:30:25;;;;;;;1.05;0.60;;;25.80;58.00;;;;;;5052085;28;20025;-72
2022/07/22 00:32:50;;;;;;;0.50;0.50;;;25.80;58.00;;;;;;5033869;28;20021;-72
2022/07/22 00:35:16;;;;;;;0.50;0.50;;;25.80;58.10;;;;;;5051931;28;20036;-72
2022/07/22 00:37:42;;;;;;;1.20;0.60;;;25.80;58.00;;;;;;5050511;28;20025;-73
2022/07/22 00:40:08;;;;;;;0.80;0.50;;;25.70;58.10;;;;;;5050528;28;20025;-73
2022/07/22 00:42:34;;;;;;;0.52;0.50;;;25.80;58.40;;;;;;5050759;28;20368;-73
2022/07/22 00:45:00;;;;;;;0.70;0.70;;;25.80;58.30;;;;;;5050494;28;20028;-73
2022/07/22 00:47:26;;;;;;;1.30;0.52;;;25.80;58.40;;;;;;5050417;28;20029;-73
2022/07/22 00:49:51;;;;;;;0.70;0.65;;;25.80;58.40;;;;;;5051440;28;20078;-73
2022/07/22 00:52:18;;;;;;;0.60;0.50;;;25.80;58.50;;;;;;5051689;28;20116;-73
2022/07/22 00:54:44;;;;;;;0.70;0.50;;;25.80;58.60;;;;;;5050294;28;20398;-73
2022/07/22 00:57:09;;;;;;;0.95;0.47;;;25.80;58.50;;;;;;5050708;28;20025;-73
2022/07/22 00:59:35;;;;;;;0.60;0.50;;;25.80;58.70;;;;;;5055501;28;20021;-72
2022/07/22 01:02:01;;;;;;;0.85;0.52;;;25.70;58.60;;;;;;5053941;28;20021;-72
2022/07/22 01:04:26;;;;;;;0.63;0.50;;;25.80;58.70;;;;;;5055345;28;20029;-73
2022/07/22 01:06:52;;;;;;;0.55;0.55;;;25.70;58.60;;;;;;5037201;28;20052;-72
2022/07/22 01:09:18;;;;;;;0.70;0.57;;;25.80;58.70;;;;;;5055270;28;20104;-72
2022/07/22 01:11:43;;;;;;;0.60;0.47;;;25.70;58.60;;;;;;5053777;28;20154;-73
2022/07/22 01:14:09;;;;;;;0.70;0.50;;;25.70;58.60;;;;;;5054827;28;20570;-72
2022/07/22 01:16:36;;;;;;;0.80;0.40;;;25.70;58.60;;;;;;5053905;28;20029;-72
2022/07/22 01:19:01;;;;;;;1.10;0.50;;;25.70;58.60;;;;;;5054852;28;20021;-72
2022/07/22 01:21:27;;;;;;;0.60;0.60;;;25.70;58.60;;;;;;5054820;28;20569;-73
2022/07/22 01:23:53;;;;;;;0.38;0.38;;;25.70;58.60;;;;;;5037016;28;20548;-72
2022/07/22 01:26:18;;;;;;;2.75;0.60;;;25.70;58.60;;;;;;5053804;28;20032;-73
2022/07/22 01:28:44;;;;;;;0.40;0.40;;;25.70;58.90;;;;;;5053557;28;20028;-73
2022/07/22 01:31:10;;;;;;;0.55;0.43;;;25.70;58.90;;;;;;5053712;28;20384;-73
2022/07/22 01:33:35;;;;;;;1.38;0.70;;;25.70;58.80;;;;;;5053467;28;20090;-73
2022/07/22 01:36:01;;;;;;;1.08;0.45;;;25.70;58.90;;;;;;5053151;28;20108;-73
2022/07/22 01:38:27;;;;;;;0.80;0.60;;;25.70;58.80;;;;;;5054777;28;20025;-73
2022/07/22 01:40:53;;;;;;;0.77;0.60;;;25.70;58.80;;;;;;5054389;28;20026;-73
2022/07/22 01:43:20;;;;;;;0.50;0.50;;;25.70;58.70;;;;;;5053442;28;20033;-73
2022/07/22 01:45:47;;;;;;;1.27;0.60;;;25.70;58.70;;;;;;5054450;28;20044;-73
2022/07/22 01:48:12;;;;;;;0.75;0.63;;;25.70;58.80;;;;;;5053353;28;20029;-73
2022/07/22 01:50:38;;;;;;;0.47;0.47;;;25.70;58.80;;;;;;5052973;28;20025;-73
2022/07/22 01:53:04;;;;;;;0.50;0.50;;;25.70;58.90;;;;;;5054359;28;20032;-73
2022/07/22 01:55:29;;;;;;;0.50;0.50;;;25.70;58.80;;;;;;5052920;28;20032;-73
2022/07/22 01:57:55;;;;;;;0.52;0.52;;;25.70;58.90;;;;;;5054096;28;20033;-73
2022/07/22 02:00:21;;;;;;;1.30;0.60;;;25.70;58.80;;;;;;5054318;28;20498;-73
2022/07/22 02:02:46;;;;;;;0.60;0.50;;;25.70;58.80;;;;;;5054173;28;20078;-73
2022/07/22 02:05:12;;;;;;;0.50;0.50;;;25.70;58.90;;;;;;5053849;28;20017;-73
2022/07/22 02:07:38;;;;;;;1.20;0.73;;;25.70;58.80;;;;;;5036455;28;20033;-73
2022/07/22 02:10:05;;;;;;;0.75;0.68;;;25.70;58.90;;;;;;5051744;28;20035;-73
2022/07/22 02:12:30;;;;;;;0.60;0.60;;;25.70;58.80;;;;;;5036158;28;20053;-73
2022/07/22 02:14:56;;;;;;;1.17;0.50;;;25.70;58.90;;;;;;5052827;28;20032;-73
2022/07/22 02:17:21;;;;;;;0.40;0.40;;;25.60;58.70;;;;;;5036032;28;20040;-73
2022/07/22 02:19:47;;;;;;;0.95;0.50;;;25.70;58.90;;;;;;5052583;28;20108;-73
2022/07/22 02:22:13;;;;;;;0.60;0.60;;;25.70;58.90;;;;;;5035984;28;20020;-73
2022/07/22 02:24:38;;;;;;;0.43;0.43;;;25.70;58.90;;;;;;5053765;28;20059;-73
2022/07/22 02:27:04;;;;;;;0.65;0.65;;;25.70;58.90;;;;;;5053737;28;20032;-72
2022/07/22 02:29:31;;;;;;;1.10;0.40;;;25.70;58.80;;;;;;5052564;28;20483;-72
2022/07/22 02:31:56;;;;;;;0.47;0.47;;;25.70;58.90;;;;;;5053572;28;20029;-72
2022/07/22 02:34:22;;;;;;;1.30;0.70;;;25.70;59.00;;;;;;5052074;28;20031;-72
2022/07/22 02:36:47;;;;;;;0.70;0.70;;;25.70;59.00;;;;;;5052318;28;20040;-72
2022/07/22 02:39:13;;;;;;;0.85;0.50;;;25.70;59.00;;;;;;5053548;28;20025;-72
2022/07/22 02:41:39;;;;;;;1.10;0.50;;;25.60;59.00;;;;;;5052408;28;20380;-72
2022/07/22 02:44:04;;;;;;;0.88;0.75;;;25.70;59.00;;;;;;5053191;28;20100;-72
2022/07/22 02:46:30;;;;;;;0.70;0.50;;;25.60;59.00;;;;;;5052203;28;20040;-72
2022/07/22 02:48:56;;;;;;;0.63;0.60;;;25.70;59.00;;;;;;5051908;28;20475;-72
2022/07/22 02:51:21;;;;;;;1.25;0.43;;;25.60;59.00;;;;;;5052205;28;20029;-72
2022/07/22 02:53:47;;;;;;;0.60;0.60;;;25.60;59.00;;;;;;5035594;28;20029;-72
2022/07/22 02:56:13;;;;;;;0.60;0.60;;;25.60;59.00;;;;;;5051723;28;20041;-72
2022/07/22 02:58:39;;;;;;;0.60;0.60;;;25.70;60.00;;;;;;5035568;28;20017;-72
2022/07/22 03:01:04;;;;;;;0.50;0.50;;;25.60;59.00;;;;;;5053038;28;20028;-72
2022/07/22 03:03:30;;;;;;;0.95;0.52;;;25.60;59.00;;;;;;5052845;28;20036;-72
2022/07/22 03:05:56;;;;;;;0.60;0.60;;;25.60;59.10;;;;;;5051606;28;20467;-72
2022/07/22 03:08:21;;;;;;;0.40;0.40;;;25.60;59.00;;;;;;5051884;28;20025;-72
2022/07/22 03:10:47;;;;;;;0.60;0.60;;;25.60;59.10;;;;;;5052897;28;20041;-72
2022/07/22 03:13:13;;;;;;;0.50;0.50;;;25.60;59.10;;;;;;5052544;28;20041;-72
2022/07/22 03:15:38;;;;;;;1.15;0.50;;;25.60;59.10;;;;;;5052850;28;20064;-72
2022/07/22 03:18:04;;;;;;;0.70;0.50;;;25.60;59.10;;;;;;5052483;28;20020;-72
2022/07/22 03:20:30;;;;;;;0.60;0.60;;;25.60;59.10;;;;;;5051519;28;20151;-73
2022/07/22 03:22:55;;;;;;;1.65;0.45;;;25.60;59.10;;;;;;5035041;28;20017;-73
2022/07/22 03:25:21;;;;;;;1.85;0.70;;;25.60;59.10;;;;;;5034682;28;20556;-73
2022/07/22 03:27:47;;;;;;;1.40;0.40;;;25.60;59.10;;;;;;5052813;28;20050;-73
2022/07/22 03:30:12;;;;;;;0.50;0.50;;;25.60;59.20;;;;;;5051317;28;20107;-73
2022/07/22 03:32:38;;;;;;;0.60;0.52;;;25.60;59.20;;;;;;5034333;28;20150;-73
2022/07/22 03:35:04;;;;;;;1.65;0.50;;;25.60;59.20;;;;;;5052490;28;20075;-73
2022/07/22 03:37:30;;;;;;;0.50;0.50;;;25.60;59.20;;;;;;5051141;28;20024;-73
2022/07/22 03:39:56;;;;;;;0.65;0.60;;;25.60;59.20;;;;;;5051218;28;20025;-72
2022/07/22 03:42:22;;;;;;;0.50;0.50;;;25.60;59.10;;;;;;5052601;28;20029;-72
2022/07/22 03:44:47;;;;;;;1.55;0.50;;;25.60;59.20;;;;;;5052258;28;20033;-72
2022/07/22 03:47:18;;;;;;;0.73;0.40;;;25.60;59.20;;;;;;5050770;28;20021;-72
2022/07/22 03:49:44;;;;;;;0.50;0.40;;;25.60;59.20;;;;;;5051117;28;20064;-72
2022/07/22 03:52:09;;;;;;;0.50;0.50;;;25.60;59.20;;;;;;5050943;28;20499;-72
2022/07/22 03:54:35;;;;;;;0.50;0.50;;;25.60;59.20;;;;;;5052266;28;20107;-72
2022/07/22 03:57:01;;;;;;;0.52;0.52;;;25.60;59.20;;;;;;5050895;28;20025;-72
2022/07/22 03:59:26;;;;;;;0.60;0.60;;;25.50;59.10;;;;;;5052275;28;20025;-72
2022/07/22 04:01:52;;;;;;;0.50;0.50;;;25.50;59.10;;;;;;5050996;28;20021;-72
2022/07/22 04:04:18;;;;;;;0.73;0.50;;;25.50;59.20;;;;;;5051061;28;20021;-72
2022/07/22 04:06:45;;;;;;;1.35;0.60;;;25.50;59.10;;;;;;5034423;28;20025;-72
2022/07/22 04:09:10;;;;;;;1.23;0.60;;;25.50;59.10;;;;;;5051909;28;20032;-72
2022/07/22 04:11:36;;;;;;;0.70;0.70;;;25.50;59.10;;;;;;5050882;28;20041;-72
2022/07/22 04:14:02;;;;;;;0.50;0.50;;;25.50;59.10;;;;;;5052051;28;20036;-72
2022/07/22 04:16:27;;;;;;;0.45;0.45;;;25.50;60.00;;;;;;5050640;28;20029;-72
2022/07/22 04:18:53;;;;;;;0.88;0.80;;;25.50;59.10;;;;;;5050811;28;20025;-72
2022/07/22 04:21:18;;;;;;;0.43;0.43;;;25.50;59.10;;;;;;5034269;28;20029;-72
2022/07/22 04:23:44;;;;;;;1.05;0.70;;;25.50;59.10;;;;;;5052127;28;20025;-72
2022/07/22 04:26:10;;;;;;;0.77;0.50;;;25.50;59.10;;;;;;5051806;28;20029;-72
2022/07/22 04:28:35;;;;;;;1.08;0.60;;;25.50;59.10;;;;;;5052074;28;20029;-72
2022/07/22 04:31:02;;;;;;;0.82;0.60;;;25.50;59.10;;;;;;5051671;28;20033;-72
2022/07/22 04:33:28;;;;;;;0.93;0.43;;;25.50;59.10;;;;;;5052966;28;20036;-72
2022/07/22 04:35:53;;;;;;;0.52;0.50;;;25.50;59.10;;;;;;5055812;28;20518;-73
2022/07/22 04:38:19;;;;;;;1.95;0.60;;;25.50;59.10;;;;;;5054565;28;20380;-72
2022/07/22 04:40:45;;;;;;;0.85;0.60;;;25.50;59.10;;;;;;5055710;28;20028;-72
2022/07/22 04:43:10;;;;;;;0.50;0.50;;;25.50;59.10;;;;;;5054583;28;20024;-72
2022/07/22 04:45:36;;;;;;;0.40;0.40;;;25.50;59.10;;;;;;5054332;28;20475;-72
2022/07/22 04:48:02;;;;;;;0.60;0.60;;;25.50;59.10;;;;;;5055382;28;20063;-72
2022/07/22 04:50:27;;;;;;;0.60;0.60;;;25.50;59.10;;;;;;5055697;28;20139;-72
2022/07/22 04:52:53;;;;;;;0.60;0.60;;;25.50;59.20;;;;;;5055567;28;20025;-72
2022/07/22 04:55:18;;;;;;;0.60;0.60;;;25.50;59.10;;;;;;5055357;28;20044;-72
2022/07/22 04:57:44;;;;;;;0.43;0.43;;;25.50;59.20;;;;;;5055531;28;20029;-72
2022/07/22 05:00:10;;;;;;;0.60;0.60;;;25.50;59.10;;;;;;5053767;28;20391;-72
2022/07/22 05:02:36;;;;;;;0.50;0.50;;;25.50;59.20;;;;;;5054324;28;20017;-72
2022/07/22 05:05:02;;;;;;;0.50;0.50;;;25.50;59.20;;;;;;5054030;28;20094;-72
2022/07/22 05:07:27;;;;;;;1.35;0.50;;;25.50;59.10;;;;;;5053993;28;20470;-72
2022/07/22 05:09:53;;;;;;;0.93;0.57;;;25.50;59.10;;;;;;5055041;28;20033;-72
2022/07/22 05:12:19;;;;;;;0.47;0.47;;;25.50;59.20;;;;;;5055018;28;20080;-72
2022/07/22 05:14:44;;;;;;;1.30;0.60;;;25.50;59.20;;;;;;5055198;28;20510;-72
2022/07/22 05:17:11;;;;;;;0.50;0.50;;;25.50;59.20;;;;;;5037089;28;20040;-72
2022/07/22 05:19:39;;;;;;;0.50;0.50;;;25.50;59.20;;;;;;5037308;28;20480;-72
2022/07/22 05:22:08;;;;;;;0.50;0.50;;;25.50;59.20;;;;;;5053665;28;20029;-72
2022/07/22 05:24:34;;;;;;;0.50;0.50;;;25.40;59.10;;;;;;5053663;28;20017;-72
2022/07/22 05:27:00;;;;;;;0.57;0.50;;;25.50;59.20;;;;;;5036976;28;20099;-72
2022/07/22 05:29:26;;;;;;;1.75;0.60;;;25.40;59.20;;;;;;5053665;28;20071;-73
2022/07/22 05:31:51;;;;;;;1.17;0.50;;;25.40;59.10;;;;;;5054891;28;20083;-72
2022/07/22 05:34:17;;;;;;;0.50;0.50;;;25.40;59.10;;;;;;5053183;28;20060;-72
2022/07/22 05:36:42;;;;;;;0.65;0.60;;;25.40;59.20;;;;;;5054609;28;20025;-72
2022/07/22 05:39:08;;;;;;;0.50;0.50;;;25.50;59.20;;;;;;5053518;28;20104;-72
2022/07/22 05:41:34;;;;;;;0.43;0.43;;;25.40;59.10;;;;;;5054461;28;20442;-72
2022/07/22 05:43:59;;;;;;;0.55;0.50;;;25.40;59.10;;;;;;5054545;28;20021;-72
2022/07/22 05:46:25;;;;;;;2.20;0.52;;;25.40;59.10;;;;;;5053162;28;20063;-72
2022/07/22 05:48:51;;;;;;;0.47;0.47;;;25.40;59.10;;;;;;5054349;28;20063;-72
2022/07/22 05:51:16;;;;;;;1.00;0.50;;;25.40;59.20;;;;;;5053125;28;20029;-72
2022/07/22 05:53:42;;;;;;;0.50;0.50;;;25.40;59.20;;;;;;5053243;28;20096;-72
2022/07/22 05:56:10;;;;;;;0.60;0.60;;;25.40;59.10;;;;;;5036370;28;20399;-71
2022/07/22 05:58:36;;;;;;;0.63;0.55;;;25.40;59.20;;;;;;5036841;28;20376;-72
2022/07/22 06:01:01;;;;;;;0.60;0.60;;;25.40;59.20;;;;;;5054367;28;20082;-72
2022/07/22 06:03:27;;;;;;;0.40;0.40;;;25.40;59.20;;;;;;5053015;28;20033;-72
2022/07/22 06:05:52;;;;;;;0.50;0.50;;;25.40;59.20;;;;;;5019934;28;20024;-72
2022/07/22 06:08:18;;;;;;;1.67;0.68;;;25.40;59.20;;;;;;5054022;28;20033;-71
2022/07/22 06:10:44;;;;;;;0.60;0.60;;;25.40;59.20;;;;;;5052638;28;20029;-71
2022/07/22 06:13:09;;;;;;;1.95;0.60;;;25.40;58.90;;;;;;5053685;28;20053;-72
2022/07/22 06:15:35;;;;;;;0.50;0.50;;;25.40;59.10;;;;;;5052893;28;20029;-72
2022/07/22 06:18:00;;;;;;;1.40;0.60;;;25.40;59.00;;;;;;5053899;28;20017;-72
2022/07/22 06:20:26;;;;;;;2.05;0.60;;;25.40;59.00;;;;;;5052657;28;20029;-72
2022/07/22 06:22:52;;;;;;;1.58;0.50;;;25.40;59.10;;;;;;5052498;28;20033;-72
2022/07/22 06:25:17;;;;;;;0.93;0.50;;;25.40;59.10;;;;;;5052328;28;20047;-72
2022/07/22 06:27:43;;;;;;;1.13;0.60;;;25.40;59.10;;;;;;5053911;28;20509;-72
2022/07/22 06:30:09;;;;;;;1.00;0.73;;;25.30;59.10;;;;;;5052496;28;20080;-72
2022/07/22 06:32:35;;;;;;;1.17;0.52;;;25.30;59.10;;;;;;5052186;28;20021;-72
2022/07/22 06:35:01;;;;;;;0.57;0.45;;;25.30;59.10;;;;;;5052375;28;20025;-72
2022/07/22 06:37:30;;;;;;;1.30;0.57;;;25.40;59.20;;;;;;5051132;28;20029;-71
2022/07/22 06:39:56;;;;;;;0.95;0.50;;;25.30;59.20;;;;;;5051724;28;20017;-72
2022/07/22 06:42:22;;;;;;;2.60;0.80;;;25.40;59.30;;;;;;5052621;28;20445;-72
2022/07/22 06:44:48;;;;;;;1.13;0.50;;;25.30;59.20;;;;;;5054075;28;20083;-72
2022/07/22 06:47:14;;;;;;;2.10;0.50;;;25.30;59.20;;;;;;5035391;28;20017;-72
2022/07/22 06:49:39;;;;;;;0.40;0.40;;;25.40;59.30;;;;;;5051129;28;20016;-72
2022/07/22 06:52:05;;;;;;;0.75;0.50;;;25.30;59.30;;;;;;5053490;28;20128;-72
2022/07/22 06:54:31;;;;;;;1.17;0.77;;;25.30;59.30;;;;;;5052775;28;20025;-72
2022/07/22 06:56:57;;;;;;;1.15;0.55;;;25.30;59.30;;;;;;5051339;28;20506;-72
2022/07/22 06:59:23;;;;;;;1.10;0.50;;;25.30;59.30;;;;;;5035439;28;20017;-72
2022/07/22 07:01:49;;;;;;;0.50;0.50;;;25.30;60.30;;;;;;5052118;28;20365;-72
2022/07/22 07:04:15;;;;;;;1.65;0.60;;;25.30;59.30;;;;;;5051314;28;20111;-72
2022/07/22 07:06:41;;;;;;;1.67;0.68;;;25.30;59.40;;;;;;5052631;28;20372;-72
2022/07/22 07:09:07;;;;;;;0.60;0.60;;;25.30;59.40;;;;;;5018693;28;20108;-72
2022/07/22 07:11:33;;;;;;;0.50;0.50;;;25.30;59.40;;;;;;5052727;28;20047;-72
2022/07/22 07:13:58;;;;;;;1.48;0.55;;;25.30;59.40;;;;;;5051695;28;20112;-72
2022/07/22 07:16:24;;;;;;;0.77;0.55;;;25.30;59.40;;;;;;5052851;28;20035;-72
2022/07/22 07:18:50;;;;;;;0.70;0.60;;;25.30;59.40;;;;;;5051503;28;20029;-72
2022/07/22 07:21:15;;;;;;;1.63;0.60;;;25.30;59.40;;;;;;5051532;28;20099;-72
2022/07/22 07:23:41;;;;;;;0.90;0.60;;;25.30;59.50;;;;;;5051433;28;20049;-72
2022/07/22 07:26:07;;;;;;;0.55;0.50;;;25.30;59.50;;;;;;5051494;28;20032;-72
2022/07/22 07:28:32;;;;;;;0.70;0.50;;;25.30;59.50;;;;;;5051319;28;20029;-71
2022/07/22 07:30:58;;;;;;;2.00;0.65;;;25.30;59.60;;;;;;5051559;28;20063;-71
2022/07/22 07:33:24;;;;;;;0.52;0.50;;;25.30;59.60;;;;;;5051180;28;20384;-72
2022/07/22 07:35:49;;;;;;;0.47;0.32;;;25.30;59.60;;;;;;5052556;28;20506;-72
2022/07/22 07:38:15;;;;;;;1.23;0.40;;;25.30;59.60;;;;;;5050540;28;20063;-71
2022/07/22 07:40:41;;;;;;;1.67;0.40;;;25.30;59.60;;;;;;5050537;28;20017;-72
2022/07/22 07:43:07;;;;;;;3.00;0.80;;;25.30;59.60;;;;;;5048412;28;20032;-72
2022/07/22 07:45:33;;;;;;;1.38;0.55;;;25.30;59.70;;;;;;5052911;28;20462;-72
2022/07/22 07:47:59;;;;;;;0.55;0.55;;;25.30;59.70;;;;;;5050221;28;20052;-72
2022/07/22 07:50:24;;;;;;;0.77;0.50;;;25.30;59.70;;;;;;5050070;28;20395;-72
2022/07/22 07:52:50;;;;;;;2.10;0.70;;;25.30;59.70;;;;;;5050100;28;20028;-72
2022/07/22 07:55:16;;;;;;;0.40;0.40;;;25.30;59.70;;;;;;5051231;28;20021;-72
2022/07/22 07:57:43;;;;;;;0.50;0.50;;;25.30;59.70;;;;;;5050156;28;20032;-72
2022/07/22 08:00:10;;;;;;;1.52;0.60;;;25.30;59.70;;;;;;5033680;28;20517;-72
2022/07/22 08:02:35;;;;;;;0.73;0.60;;;25.30;59.70;;;;;;5034990;28;20100;-70
2022/07/22 08:05:01;;;;;;;1.00;0.60;;;25.30;59.70;;;;;;5049285;28;20100;-70
2022/07/22 08:07:27;;;;;;;1.30;0.70;;;25.30;58.10;;;;;;5051320;28;20083;-70
2022/07/22 08:09:53;;;;;;;1.15;0.70;;;25.20;57.50;;;;;;5053182;28;20892;-70
2022/07/22 08:12:19;;;;;;;2.88;1.05;;;25.20;57.60;;;;;;5053221;28;20129;-70
2022/07/22 08:14:44;;;;;;;1.05;0.68;;;25.20;57.80;;;;;;5052240;28;20017;-70
2022/07/22 08:17:10;;;;;;;0.60;0.50;;;25.20;57.90;;;;;;5053342;28;20079;-70
2022/07/22 08:19:35;;;;;;;1.55;0.55;;;25.20;57.80;;;;;;5051930;28;20032;-70
2022/07/22 08:22:01;;;;;;;0.60;0.55;;;25.10;57.60;;;;;;5051790;28;20021;-70
2022/07/22 08:24:27;;;;;;;4.78;0.70;;;25.10;57.60;;;;;;5051424;28;20070;-70
2022/07/22 08:26:54;;;;;;;1.77;0.50;;;25.10;57.50;;;;;;5052834;28;20029;-70
2022/07/22 08:29:23;;;;;;;1.58;0.70;;;25.10;57.50;;;;;;5052889;28;20544;-70
2022/07/22 08:31:49;;;;;;;0.68;0.60;;;25.10;57.50;;;;;;5051884;28;20036;-70
2022/07/22 08:34:14;;;;;;;0.93;0.60;;;25.10;57.50;;;;;;5054220;28;20025;-70
2022/07/22 08:36:40;;;;;;;0.85;0.70;;;25.10;57.50;;;;;;5052634;28;20031;-71
2022/07/22 08:39:05;;;;;;;0.85;0.60;;;25.10;57.50;;;;;;5051722;28;20039;-70
2022/07/22 08:41:35;;;;;;;0.80;0.63;;;25.10;57.40;;;;;;5052956;28;20017;-70
2022/07/22 08:44:05;;;;;;;0.98;0.70;;;25.10;57.40;;;;;;5051654;28;20487;-70
2022/07/22 08:46:31;;;;;;;1.08;0.70;;;25.10;57.40;;;;;;5034510;28;20021;-70
2022/07/22 08:49:00;;;;;;;0.75;0.60;;;25.00;57.30;;;;;;5034951;28;20025;-71
2022/07/22 08:51:26;;;;;;;0.93;0.65;;;25.00;57.40;;;;;;5051151;28;20067;-71
2022/07/22 08:53:51;;;;;;;0.55;0.55;;;25.00;57.30;;;;;;5051375;28;20471;-70
2022/07/22 08:56:17;;;;;;;0.90;0.52;;;25.00;57.30;;;;;;5052481;28;20440;-70
2022/07/22 08:58:42;;;;;;;1.63;0.55;;;25.00;57.30;;;;;;5051230;28;20104;-70
2022/07/22 09:01:15;;;;;;;2.25;0.70;;;25.00;57.30;;;;;;5051307;28;20029;-70
2022/07/22 09:04:04;;;;;;;0.90;0.70;;;25.00;57.30;;;;;;5052310;28;20024;-69
2022/07/22 09:06:33;;;;;;;1.45;0.65;;;25.00;57.30;;;;;;5051322;28;20024;-69
2022/07/22 09:09:05;;;;;;;1.13;0.70;;;25.00;57.30;;;;;;5049929;28;20100;-69
2022/07/22 09:11:31;;;;;;;1.48;0.77;;;25.00;57.30;;;;;;5049802;28;20609;-69
2022/07/22 09:13:58;;;;;;;0.73;0.70;;;25.00;57.30;;;;;;5050865;28;20025;-69
2022/07/22 09:16:45;;;;;;;0.80;0.70;;;25.00;57.30;;;;;;5055074;28;20031;-69
2022/07/22 09:19:11;;;;;;;2.22;0.80;;;25.00;57.30;;;;;;5052990;28;20044;-70
2022/07/22 09:21:38;;;;;;;0.98;0.60;;;25.00;57.30;;;;;;5051281;28;20468;-69
2022/07/22 09:24:05;;;;;;;0.63;0.63;;;24.90;57.20;;;;;;5051370;28;20013;-69
2022/07/22 09:26:38;;;;;;;1.75;0.80;;;24.90;57.20;;;;;;5051885;28;20036;-70
2022/07/22 09:29:04;;;;;;;0.52;0.50;;;24.90;57.20;;;;;;5052613;28;20025;-77
2022/07/22 09:31:32;;;;;;;0.98;0.80;;;25.00;57.10;;;;;;5054149;28;20047;-76
2022/07/22 09:33:58;;;;;;;0.70;0.70;;;25.10;56.60;;;;;;5051071;28;20091;-75
2022/07/22 09:36:24;;;;;;;0.82;0.60;;;25.10;56.40;;;;;;5060073;28;20426;-76
2022/07/22 09:38:50;;;;;;;2.90;0.75;;;25.20;56.30;;;;;;5060428;28;20040;-78
2022/07/22 09:41:16;;;;;;;0.70;0.70;;;25.20;56.20;;;;;;5065128;28;20029;-77
2022/07/22 09:43:41;;;;;;;1.33;0.63;;;25.20;56.10;;;;;;5051404;28;20387;-77
2022/07/22 09:46:08;;;;;;;0.82;0.70;;;25.30;57.10;;;;;;5054164;28;20075;-74
2022/07/22 09:48:33;;;;;;;0.98;0.55;;;25.30;56.00;;;;;;5060493;28;20016;-73
2022/07/22 09:50:59;;;;;;;1.27;0.80;;;25.40;55.80;;;;;;5055440;28;20035;-75
2022/07/22 09:53:27;;;;;;;1.55;0.85;;;25.40;55.70;;;;;;5055267;28;20025;-75
2022/07/22 09:55:53;;;;;;;2.22;0.77;;;25.40;55.70;;;;;;5055970;28;20055;-78
2022/07/22 09:58:19;;;;;;;0.73;0.50;;;25.40;55.60;;;;;;5053309;28;20372;-77
2022/07/22 10:00:44;;;;;;;0.85;0.68;;;25.50;55.60;;;;;;5053115;28;20013;-76
2022/07/22 10:03:17;;;;;;;0.90;0.70;;;25.50;55.40;;;;;;5055171;28;20028;-77
2022/07/22 10:05:44;;;;;;;0.93;0.80;;;25.50;55.40;;;;;;5052401;28;20013;-77
2022/07/22 10:08:11;;;;;;;1.15;0.73;;;25.50;55.30;;;;;;5034704;28;20051;-76
2022/07/22 10:10:38;;;;;;;0.82;0.70;;;25.60;55.30;;;;;;5049454;28;20087;-77
2022/07/22 10:13:08;;;;;;;1.35;0.80;;;25.60;55.20;;;;;;5055969;28;20067;-78
2022/07/22 10:15:34;;;;;;;0.75;0.65;;;25.60;55.20;;;;;;5050108;28;20025;-77
2022/07/22 10:18:08;;;;;;;0.60;0.60;;;25.70;55.10;;;;;;5051218;28;20025;-76
2022/07/22 10:20:34;;;;;;;0.50;0.50;;;25.70;54.90;;;;;;5050394;28;20021;-77
2022/07/22 10:23:01;;;;;;;1.17;0.73;;;25.70;54.80;;;;;;5058229;28;20024;-77
2022/07/22 10:25:31;;;;;;;1.63;0.70;;;25.70;54.80;;;;;;5053968;28;20107;-77
2022/07/22 10:28:05;;;;;;;0.75;0.70;;;25.70;54.70;;;;;;5062706;28;20025;-77
2022/07/22 10:30:38;;;;;;;2.13;0.75;;;25.80;54.70;;;;;;5061015;28;20108;-77
2022/07/22 10:33:05;;;;;;;0.65;0.60;;;25.80;54.70;;;;;;5055000;28;20036;-77
2022/07/22 10:35:31;;;;;;;1.45;0.70;;;25.80;54.60;;;;;;5060742;28;20047;-77
2022/07/22 10:37:58;;;;;;;0.75;0.65;;;25.80;54.50;;;;;;5052438;28;20020;-77
2022/07/22 10:40:26;;;;;;;0.60;0.60;;;25.80;54.50;;;;;;5050640;28;20013;-77
2022/07/22 10:43:00;;;;;;;0.77;0.77;;;25.90;54.60;;;;;;5057811;28;20506;-76
2022/07/22 10:45:33;;;;;;;0.95;0.63;;;25.90;54.60;;;;;;5054344;28;20017;-77
2022/07/22 10:48:00;;;;;;;0.60;0.60;;;25.90;54.50;;;;;;5060278;28;20020;-77
2022/07/22 10:50:35;;;;;;;1.30;0.60;;;25.90;54.40;;;;;;5068265;28;20020;-77
2022/07/22 10:53:12;;;;;;;0.80;0.80;;;25.90;54.40;;;;;;5056584;28;20438;-77
2022/07/22 10:55:39;;;;;;;1.00;0.73;;;25.90;54.30;;;;;;5042585;28;20047;-77
2022/07/22 10:58:38;;;;;;;0.68;0.60;;;25.90;54.20;;;;;;5041439;28;20021;-78
2022/07/22 11:01:07;;;;;;;1.80;0.80;;;26.00;54.30;;;;;;5050125;28;20013;-78
2022/07/22 11:03:34;;;;;;;0.82;0.70;;;26.00;54.30;;;;;;5048991;28;20020;-78
2022/07/22 11:06:33;;;;;;;1.85;0.55;;;26.00;54.10;;;;;;5049591;28;20060;-78
2022/07/22 11:09:01;;;;;;;0.77;0.63;;;26.00;54.10;;;;;;5047578;28;20048;-77
2022/07/22 11:11:43;;;;;;;0.82;0.80;;;26.00;54.00;;;;;;5047864;28;20036;-78
2022/07/22 11:14:27;;;;;;;0.77;0.60;;;26.00;54.00;;;;;;5047723;28;20450;-77
2022/07/22 11:17:16;;;;;;;1.10;0.77;;;26.00;54.10;;;;;;5033899;28;20028;-77
2022/07/22 11:19:44;;;;;;;0.95;0.68;;;26.00;54.10;;;;;;5058663;28;20043;-77
2022/07/22 11:22:11;;;;;;;0.90;0.68;;;26.00;54.10;;;;;;5054239;28;20017;-77
2022/07/22 11:24:37;;;;;;;0.60;0.60;;;26.00;54.10;;;;;;5029985;28;20029;-78
2022/07/22 11:27:03;;;;;;;0.82;0.60;;;26.00;54.10;;;;;;5038351;28;20020;-78
2022/07/22 11:29:33;;;;;;;1.35;0.85;;;26.00;54.20;;;;;;5049823;28;20037;-78
2022/07/22 11:31:59;;;;;;;0.82;0.63;;;26.00;54.10;;;;;;5059867;28;20045;-81
2022/07/22 11:34:25;;;;;;;0.68;0.60;;;26.00;54.10;;;;;;5036927;28;20033;-82
2022/07/22 11:36:51;;;;;;;1.00;0.70;;;26.00;54.10;;;;;;5034424;28;20029;-82
2022/07/22 11:39:20;;;;;;;2.05;0.70;;;26.10;54.10;;;;;;5054085;28;20087;-82
2022/07/22 11:41:45;;;;;;;0.65;0.65;;;26.00;54.00;;;;;;5049610;28;20037;-82
2022/07/22 11:44:11;;;;;;;0.55;0.55;;;26.00;54.00;;;;;;5050367;28;20064;-82
2022/07/22 11:46:41;;;;;;;0.90;0.70;;;26.10;54.10;;;;;;5034777;28;20028;-81
2022/07/22 11:49:08;;;;;;;0.70;0.60;;;26.10;55.00;;;;;;5051131;28;20025;-81
2022/07/22 11:51:36;;;;;;;1.10;0.70;;;26.10;54.00;;;;;;5057756;28;20023;-77
2022/07/22 11:54:03;;;;;;;1.08;0.60;;;26.10;54.00;;;;;;5063499;28;20071;-78
2022/07/22 11:56:29;;;;;;;0.73;0.45;;;26.10;54.00;;;;;;5051223;28;20052;-69
2022/07/22 11:58:55;;;;;;;0.65;0.50;;;26.10;54.10;;;;;;5057866;28;20063;-69
2022/07/22 12:01:25;;;;;;;1.02;0.68;;;26.00;54.20;;;;;;5054085;28;20482;-69
2022/07/22 12:03:53;;;;;;;0.98;0.68;;;26.00;55.30;;;;;;5062961;28;20075;-69
2022/07/22 12:06:19;;;;;;;0.88;0.60;;;26.00;54.40;;;;;;5019764;28;20424;-69
2022/07/22 12:09:12;;;;;;;0.65;0.60;;;25.90;54.40;;;;;;5065560;28;20475;-69
2022/07/22 12:11:41;;;;;;;0.88;0.65;;;25.90;54.50;;;;;;5049108;28;20472;-69
2022/07/22 12:14:11;;;;;;;1.73;0.65;;;25.90;54.50;;;;;;5047934;28;20053;-82
2022/07/22 12:16:37;;;;;;;0.40;0.40;;;25.90;54.50;;;;;;5049953;28;20135;-68
2022/07/22 12:19:05;;;;;;;2.75;0.80;;;25.90;54.50;;;;;;5047992;28;20032;-68
2022/07/22 12:21:51;;;;;;;2.35;0.70;;;25.90;54.50;;;;;;5049174;28;20048;-68
2022/07/22 12:24:28;;;;;;;1.00;0.73;;;25.90;54.60;;;;;;5052851;28;20514;-79
2022/07/22 12:26:54;;;;;;;0.85;0.80;;;25.90;54.30;;;;;;5055266;28;20027;-78
2022/07/22 12:29:20;;;;;;;2.90;0.77;;;26.00;54.10;;;;;;5054858;28;20029;-77
2022/07/22 12:31:47;;;;;;;0.70;0.70;;;26.00;54.00;;;;;;5067170;28;20075;-78
2022/07/22 12:34:13;;;;;;;0.80;0.80;;;26.10;54.00;;;;;;5051067;28;20016;-77
2022/07/22 12:36:43;;;;;;;2.28;0.88;;;26.10;54.00;;;;;;5051933;28;20118;-80
2022/07/22 12:39:14;;;;;;;1.23;0.90;;;26.10;54.00;;;;;;5057289;28;20017;-78
2022/07/22 12:41:47;;;;;;;0.60;0.60;;;26.10;54.10;;;;;;5051523;28;20082;-79
2022/07/22 12:44:26;;;;;;;0.80;0.50;;;26.10;54.10;;;;;;5052543;28;20013;-78
2022/07/22 12:46:55;;;;;;;0.57;0.55;;;26.10;53.80;;;;;;5051244;28;20025;-81